YBBN/BNE METAR and TAF weather

Enter ICAO airport designator
Station Type Date Time Source
YBBN METAR 2021/04/13 22:00 UTC NOAA

YBBN 132200Z 21010KT 9999 FEW020 18/13 Q1020


Station Type Date Time Source
YBBN Decoded METAR 2021/04/13 22:00 UTC NOAA

Brisbane Airport M. O, Australia (YBBN) 27-23S 153-06E 5M
Apr 13, 2021 - 06:00 PM EDT / 2021.04.13 2200 UTC
Wind: from the SSW (210 degrees) at 12 MPH (10 KT):0
Visibility: greater than 7 mile(s):0
Sky conditions: mostly clear
Temperature: 64 F (18 C)
Dew Point: 55 F (13 C)
Relative Humidity: 72%
Pressure (altimeter): 30.12 in. Hg (1020 hPa)
ob: YBBN 132200Z 21010KT 9999 FEW020 18/13 Q1020
cycle: 22

Station Type Date Time Source
YBBN TAF 2021/04/13 21:44 UTC NOAA

TAF YBBN 132010Z 1321/1500 21008KT 9999 FEW035
FM140200 05009KT 9999 FEW040
FM141400 34005KT CAVOK
FM141800 24005KT CAVOK

Example: see airport list